Time;durP1;ratioP1;P1;durP2;ratioP2;P2;SDS_P1;SDS_P2;PMS_P1;PMS_P2;Temp;Humidity;BMP_temperature;BMP_pressure;BME280_temperature;BME280_humidity;BME280_pressure;Samples;Min_cycle;Max_cycle;Signal;HPM_P1;HPM_P2
2024/04/13 00:00:11;;;;;;;9.23;5.40;;;11.40;84.00;;;;;;5411446;26;20555;-73
2024/04/13 00:02:42;;;;;;;10.53;5.50;;;11.30;84.00;;;;;;5404612;26;20638;-72
2024/04/13 00:05:10;;;;;;;8.90;5.60;;;11.30;84.30;;;;;;5417256;26;20688;-71
2024/04/13 00:07:42;;;;;;;9.73;5.93;;;11.30;84.80;;;;;;5413223;26;20675;-72
2024/04/13 00:10:09;;;;;;;5.23;4.73;;;11.20;85.10;;;;;;5416081;26;20549;-71
2024/04/13 00:12:40;;;;;;;5.70;4.60;;;11.10;85.30;;;;;;5412147;26;20667;-71
2024/04/13 00:15:06;;;;;;;7.57;4.97;;;11.10;85.20;;;;;;5420961;26;20593;-71
2024/04/13 00:17:35;;;;;;;7.73;6.00;;;11.10;85.80;;;;;;5411484;26;20551;-71
2024/04/13 00:20:01;;;;;;;6.43;5.73;;;11.10;85.80;;;;;;5410740;26;20615;-72
2024/04/13 00:22:30;;;;;;;7.00;5.20;;;11.00;85.50;;;;;;5411941;26;20619;-71
2024/04/13 00:24:59;;;;;;;7.33;6.17;;;11.00;85.40;;;;;;5410086;26;20540;-72
2024/04/13 00:27:28;;;;;;;6.20;5.60;;;11.00;85.40;;;;;;5418772;26;20588;-71
2024/04/13 00:29:54;;;;;;;8.77;5.87;;;11.10;85.20;;;;;;5413239;26;20555;-71
2024/04/13 00:32:23;;;;;;;7.13;6.17;;;11.10;84.90;;;;;;5415028;26;21166;-71
2024/04/13 00:34:49;;;;;;;8.80;6.83;;;11.10;84.80;;;;;;5413089;26;20549;-71
2024/04/13 00:37:18;;;;;;;9.10;6.73;;;11.10;85.30;;;;;;5411146;26;20563;-71
2024/04/13 00:39:44;;;;;;;9.40;6.53;;;11.00;86.60;;;;;;5418395;26;20691;-72
2024/04/13 00:42:16;;;;;;;8.80;6.50;;;11.00;86.80;;;;;;5411681;26;20561;-71
2024/04/13 00:44:42;;;;;;;7.80;6.27;;;11.00;87.00;;;;;;5409435;26;21147;-72
2024/04/13 00:47:11;;;;;;;6.53;5.83;;;11.00;86.00;;;;;;5411346;26;20556;-72
2024/04/13 00:49:39;;;;;;;9.83;6.77;;;11.00;86.00;;;;;;5413868;26;20593;-72
2024/04/13 00:52:11;;;;;;;5.70;5.13;;;10.90;86.60;;;;;;5411345;26;20621;-71
2024/04/13 00:54:38;;;;;;;6.97;6.37;;;11.00;86.20;;;;;;5416370;26;20635;-71
2024/04/13 00:57:09;;;;;;;8.37;5.20;;;11.00;86.20;;;;;;5413774;26;20620;-71
2024/04/13 00:59:38;;;;;;;11.40;5.70;;;11.00;86.90;;;;;;5411532;26;20587;-71
2024/04/13 01:02:11;;;;;;;6.60;5.90;;;11.00;87.80;;;;;;5397860;26;20978;-72
2024/04/13 01:04:37;;;;;;;7.03;6.33;;;10.90;87.10;;;;;;5414928;26;20686;-72
2024/04/13 01:07:06;;;;;;;7.00;6.30;;;10.90;87.20;;;;;;5419827;26;20557;-72
2024/04/13 01:09:33;;;;;;;6.33;5.37;;;10.90;87.70;;;;;;5415440;26;20658;-71
2024/04/13 01:12:05;;;;;;;8.57;5.97;;;10.90;87.60;;;;;;5411397;26;20669;-71
2024/04/13 01:14:33;;;;;;;8.40;7.37;;;10.80;88.40;;;;;;5411409;26;20557;-71
2024/04/13 01:17:06;;;;;;;9.30;6.10;;;10.70;89.70;;;;;;5416192;26;20911;-71
2024/04/13 01:19:33;;;;;;;6.97;6.00;;;10.70;88.90;;;;;;5425018;26;20949;-72
2024/04/13 01:22:02;;;;;;;5.50;5.00;;;10.60;88.40;;;;;;5410192;26;20962;-71
2024/04/13 01:24:32;;;;;;;12.20;6.60;;;10.60;88.10;;;;;;5412387;26;20555;-72
2024/04/13 01:27:02;;;;;;;7.17;6.50;;;10.50;88.20;;;;;;5424563;26;20551;-71
2024/04/13 01:29:28;;;;;;;6.87;5.73;;;10.50;88.50;;;;;;5416585;26;20555;-71
2024/04/13 01:31:57;;;;;;;11.43;7.83;;;10.40;89.40;;;;;;5420178;26;21095;-71
2024/04/13 01:34:24;;;;;;;7.00;6.30;;;10.30;89.30;;;;;;5421827;26;20550;-71
2024/04/13 01:36:53;;;;;;;7.00;6.40;;;10.30;90.10;;;;;;5433010;26;20815;-71
2024/04/13 01:39:20;;;;;;;8.47;6.80;;;10.30;89.70;;;;;;5415446;26;20664;-71
2024/04/13 01:41:57;;;;;;;10.07;6.17;;;10.30;89.30;;;;;;5416286;26;20968;-71
2024/04/13 01:44:25;;;;;;;7.20;5.97;;;10.30;89.10;;;;;;5421286;26;20666;-71
2024/04/13 01:46:58;;;;;;;8.50;6.03;;;10.30;89.20;;;;;;5425416;26;20685;-72
2024/04/13 01:49:26;;;;;;;10.20;6.20;;;10.30;90.20;;;;;;5421816;26;21152;-72
2024/04/13 01:51:56;;;;;;;6.30;5.70;;;10.20;90.60;;;;;;5414261;26;20935;-72
2024/04/13 01:54:23;;;;;;;6.50;5.90;;;10.20;91.00;;;;;;5417781;26;21120;-72
2024/04/13 01:56:55;;;;;;;6.37;5.63;;;10.30;90.70;;;;;;5413881;26;20574;-72
2024/04/13 01:59:22;;;;;;;10.40;6.00;;;10.30;90.20;;;;;;5410754;26;20600;-72
2024/04/13 02:01:53;;;;;;;7.23;5.63;;;10.30;90.10;;;;;;5426649;26;20707;-72
2024/04/13 02:04:21;;;;;;;6.50;5.77;;;10.30;90.00;;;;;;5419210;26;20579;-72
2024/04/13 02:06:51;;;;;;;6.43;5.83;;;10.30;90.10;;;;;;5422810;26;20561;-72
2024/04/13 02:09:18;;;;;;;8.37;6.43;;;10.30;90.20;;;;;;5414530;26;20612;-72
2024/04/13 02:11:49;;;;;;;5.63;5.13;;;10.30;90.40;;;;;;5421292;26;20617;-72
2024/04/13 02:14:18;;;;;;;5.87;5.30;;;10.30;90.50;;;;;;5415721;26;20551;-72
2024/04/13 02:16:48;;;;;;;5.83;5.23;;;10.30;90.20;;;;;;5420251;26;20625;-73
2024/04/13 02:19:16;;;;;;;11.70;5.57;;;10.30;90.10;;;;;;5425433;26;20568;-72
2024/04/13 02:21:45;;;;;;;9.00;6.40;;;10.30;90.00;;;;;;5423879;26;20629;-72
2024/04/13 02:24:13;;;;;;;7.83;6.03;;;10.20;90.40;;;;;;5416928;26;20665;-72
2024/04/13 02:26:42;;;;;;;6.00;5.40;;;10.10;90.30;;;;;;5412915;26;20555;-72
2024/04/13 02:29:08;;;;;;;10.17;5.90;;;10.20;90.40;;;;;;5420890;26;20587;-72
2024/04/13 02:31:40;;;;;;;6.33;5.73;;;10.10;90.30;;;;;;5413811;26;20567;-73
2024/04/13 02:34:06;;;;;;;6.60;5.40;;;10.10;90.30;;;;;;5423990;26;20599;-72
2024/04/13 02:36:35;;;;;;;6.40;5.73;;;10.10;90.70;;;;;;5414466;26;20571;-72
2024/04/13 02:39:03;;;;;;;8.00;6.77;;;10.10;91.30;;;;;;5417964;26;20930;-72
2024/04/13 02:41:32;;;;;;;8.87;5.70;;;10.10;91.20;;;;;;5416066;26;21564;-72
2024/04/13 02:44:00;;;;;;;8.83;6.13;;;10.10;91.10;;;;;;5412263;26;20953;-72
2024/04/13 02:46:30;;;;;;;7.50;6.87;;;10.10;91.00;;;;;;5413457;26;21189;-72
2024/04/13 02:49:00;;;;;;;6.83;6.23;;;10.10;91.00;;;;;;5418200;26;20669;-72
2024/04/13 02:51:30;;;;;;;8.20;7.40;;;10.20;90.90;;;;;;5415368;26;20689;-72
2024/04/13 02:53:57;;;;;;;14.63;7.90;;;10.10;91.80;;;;;;5420314;26;20577;-72
2024/04/13 02:56:27;;;;;;;14.33;7.83;;;10.10;91.70;;;;;;5419120;26;20559;-72
2024/04/13 02:58:54;;;;;;;8.40;7.17;;;10.10;91.80;;;;;;5412534;26;20590;-72
2024/04/13 03:01:24;;;;;;;8.40;6.77;;;10.10;91.90;;;;;;5413125;26;20943;-72
2024/04/13 03:03:50;;;;;;;9.03;8.07;;;10.10;91.70;;;;;;5413909;26;20561;-72
2024/04/13 03:06:22;;;;;;;7.77;7.07;;;10.10;91.60;;;;;;5414530;26;20807;-72
2024/04/13 03:08:50;;;;;;;8.57;7.23;;;10.10;91.60;;;;;;5415287;26;20539;-72
2024/04/13 03:11:20;;;;;;;8.13;7.20;;;10.10;91.30;;;;;;5414225;26;20552;-72
2024/04/13 03:13:48;;;;;;;9.63;7.80;;;10.00;91.30;;;;;;5413431;26;20547;-72
2024/04/13 03:16:17;;;;;;;11.67;8.07;;;9.90;92.00;;;;;;5421446;26;20613;-72
2024/04/13 03:18:44;;;;;;;9.63;7.57;;;9.90;92.10;;;;;;5414543;26;20551;-72
2024/04/13 03:21:13;;;;;;;7.77;7.07;;;9.90;92.50;;;;;;5413663;26;21105;-72
2024/04/13 03:23:42;;;;;;;8.73;7.83;;;9.90;92.30;;;;;;5427813;26;20959;-72
2024/04/13 03:26:11;;;;;;;9.57;7.90;;;9.80;92.50;;;;;;5419757;26;20555;-72
2024/04/13 03:28:37;;;;;;;9.07;7.63;;;9.70;93.10;;;;;;5417174;26;20552;-71
2024/04/13 03:31:07;;;;;;;8.53;7.73;;;9.70;92.60;;;;;;5412161;26;20610;-71
2024/04/13 03:33:33;;;;;;;8.20;7.40;;;9.70;92.50;;;;;;5415632;26;20560;-71
2024/04/13 03:36:03;;;;;;;9.13;7.97;;;9.70;92.70;;;;;;5412800;26;20559;-71
2024/04/13 03:38:32;;;;;;;11.70;8.13;;;9.70;93.00;;;;;;5412585;26;20643;-72
2024/04/13 03:41:05;;;;;;;7.60;6.80;;;9.70;92.60;;;;;;5427552;26;20904;-71
2024/04/13 03:43:34;;;;;;;11.80;7.47;;;9.70;92.70;;;;;;5413379;26;20580;-72
2024/04/13 03:46:01;;;;;;;8.27;7.47;;;9.70;92.60;;;;;;5418714;26;20590;-72
2024/04/13 03:48:29;;;;;;;10.07;8.70;;;9.70;93.00;;;;;;5413552;26;20603;-71
2024/04/13 03:50:56;;;;;;;9.47;7.13;;;9.60;93.10;;;;;;5417880;26;20644;-71
2024/04/13 03:53:24;;;;;;;8.07;7.23;;;9.60;93.40;;;;;;5414366;26;20552;-71
2024/04/13 03:55:51;;;;;;;9.10;8.17;;;9.60;93.00;;;;;;5420935;26;20583;-71
2024/04/13 03:58:22;;;;;;;9.03;8.17;;;9.60;92.80;;;;;;5427429;26;20558;-71
2024/04/13 04:00:48;;;;;;;8.53;7.83;;;9.60;93.00;;;;;;5413373;26;20880;-72
2024/04/13 04:03:17;;;;;;;8.37;7.67;;;9.50;92.70;;;;;;5411895;26;20678;-72
2024/04/13 04:05:43;;;;;;;10.57;8.83;;;9.50;92.80;;;;;;5413355;26;20597;-72
2024/04/13 04:08:12;;;;;;;8.73;7.93;;;9.50;92.80;;;;;;5422806;26;20665;-72
2024/04/13 04:10:40;;;;;;;8.70;7.90;;;9.50;92.80;;;;;;5417077;26;20544;-72
2024/04/13 04:13:09;;;;;;;9.03;6.80;;;9.50;93.00;;;;;;5415066;26;20615;-72
2024/04/13 04:15:38;;;;;;;11.30;6.53;;;9.40;93.00;;;;;;5417089;26;21226;-72
2024/04/13 04:18:07;;;;;;;10.10;6.90;;;9.50;93.10;;;;;;5424424;26;20564;-72
2024/04/13 04:20:33;;;;;;;7.27;6.50;;;9.50;93.10;;;;;;5415447;26;20556;-72
2024/04/13 04:23:05;;;;;;;7.17;6.47;;;9.50;93.30;;;;;;5412964;26;20606;-72
2024/04/13 04:25:31;;;;;;;9.03;6.63;;;9.40;93.60;;;;;;5411865;26;20547;-72
2024/04/13 04:28:00;;;;;;;9.33;6.37;;;9.40;93.40;;;;;;5426538;26;20551;-72
2024/04/13 04:30:26;;;;;;;10.67;6.40;;;9.40;93.20;;;;;;5422396;26;20544;-72
2024/04/13 04:32:58;;;;;;;7.90;6.93;;;9.40;93.10;;;;;;5416766;26;20980;-72
2024/04/13 04:35:24;;;;;;;5.90;5.30;;;9.30;93.20;;;;;;5417869;26;20580;-72
2024/04/13 04:37:53;;;;;;;13.50;6.67;;;9.30;93.50;;;;;;5411566;26;20980;-72
2024/04/13 04:40:21;;;;;;;6.00;5.40;;;9.30;93.40;;;;;;5412406;26;21150;-72
2024/04/13 04:42:50;;;;;;;6.20;5.60;;;9.30;93.30;;;;;;5414746;26;20546;-72
2024/04/13 04:45:16;;;;;;;9.30;5.60;;;9.40;93.10;;;;;;5429985;26;20607;-71
2024/04/13 04:47:45;;;;;;;8.03;5.37;;;9.40;93.00;;;;;;5420951;26;20559;-72
2024/04/13 04:50:14;;;;;;;7.20;5.60;;;9.40;93.20;;;;;;5411534;26;20559;-72
2024/04/13 04:52:43;;;;;;;7.00;5.77;;;9.40;93.20;;;;;;5409647;26;21326;-72
2024/04/13 04:55:10;;;;;;;7.77;6.17;;;9.40;93.20;;;;;;5423963;26;20926;-73
2024/04/13 04:57:38;;;;;;;8.80;7.30;;;9.40;93.10;;;;;;5422637;26;20561;-72
2024/04/13 05:00:13;;;;;;;7.73;6.93;;;9.40;93.70;;;;;;5419101;26;20596;-72
2024/04/13 05:02:48;;;;;;;12.07;7.63;;;9.40;93.40;;;;;;5396083;26;20592;-72
2024/04/13 05:05:17;;;;;;;7.63;6.93;;;9.40;93.40;;;;;;5413423;26;21078;-72
2024/04/13 05:07:46;;;;;;;9.57;6.77;;;9.40;93.50;;;;;;5437208;26;20638;-72
2024/04/13 05:10:12;;;;;;;9.57;7.13;;;9.40;93.60;;;;;;5415433;26;20551;-72
2024/04/13 05:12:42;;;;;;;10.70;6.90;;;9.40;93.70;;;;;;5416214;26;20942;-72
2024/04/13 05:15:08;;;;;;;7.60;6.80;;;9.40;94.00;;;;;;5414885;26;20547;-72
2024/04/13 05:17:37;;;;;;;6.87;6.27;;;9.40;94.30;;;;;;5426296;26;21240;-72
2024/04/13 05:20:03;;;;;;;9.50;7.20;;;9.40;94.70;;;;;;5414528;26;20615;-72
2024/04/13 05:22:35;;;;;;;9.53;7.27;;;9.40;94.80;;;;;;5416575;26;20555;-72
2024/04/13 05:25:01;;;;;;;9.23;6.40;;;9.50;95.10;;;;;;5415960;26;20531;-72
2024/04/13 05:27:30;;;;;;;7.83;7.03;;;9.50;94.70;;;;;;5400885;26;20568;-72
2024/04/13 05:30:02;;;;;;;7.57;6.60;;;9.50;94.90;;;;;;5414872;26;20566;-72
2024/04/13 05:32:31;;;;;;;8.47;7.00;;;9.50;95.40;;;;;;5412727;26;21025;-72
2024/04/13 05:34:57;;;;;;;14.40;7.10;;;9.50;95.10;;;;;;5404944;26;20609;-72
2024/04/13 05:37:26;;;;;;;9.83;6.97;;;9.50;95.00;;;;;;5397531;26;20635;-72
2024/04/13 05:39:55;;;;;;;12.27;7.70;;;9.70;94.70;;;;;;5398365;26;20596;-74
2024/04/13 05:42:24;;;;;;;9.53;8.73;;;9.70;94.60;;;;;;5402582;26;20557;-71
2024/04/13 05:44:50;;;;;;;11.67;9.50;;;9.80;94.50;;;;;;5411691;26;20551;-71
2024/04/13 05:47:19;;;;;;;12.77;8.70;;;9.90;94.40;;;;;;5395184;26;20617;-72
2024/04/13 05:49:45;;;;;;;12.80;8.87;;;10.00;93.70;;;;;;5405415;26;20607;-73
2024/04/13 05:52:14;;;;;;;10.27;8.67;;;10.10;93.60;;;;;;5409742;26;20616;-73
2024/04/13 05:54:41;;;;;;;10.73;7.87;;;10.20;93.40;;;;;;5436196;26;20971;-73
2024/04/13 05:57:12;;;;;;;9.30;8.40;;;10.30;93.20;;;;;;5413200;26;20606;-73
2024/04/13 05:59:38;;;;;;;12.33;8.33;;;10.50;92.70;;;;;;5407306;26;20605;-74
2024/04/13 06:02:08;;;;;;;9.37;8.23;;;10.60;92.50;;;;;;5412989;26;20550;-74
2024/04/13 06:04:35;;;;;;;8.70;7.77;;;10.60;92.30;;;;;;5410484;26;20543;-74
2024/04/13 06:07:04;;;;;;;9.50;8.50;;;10.70;92.30;;;;;;5410275;26;20571;-73
2024/04/13 06:09:32;;;;;;;9.87;7.50;;;10.80;92.40;;;;;;5418104;26;20555;-72
2024/04/13 06:12:01;;;;;;;7.87;7.07;;;10.90;92.70;;;;;;5416614;26;20539;-72
2024/04/13 06:14:39;;;;;;;8.80;6.80;;;11.20;92.20;;;;;;5412917;26;20725;-72
2024/04/13 06:17:15;;;;;;;7.60;5.93;;;11.20;91.20;;;;;;5412179;26;20566;-72
2024/04/13 06:19:44;;;;;;;11.73;6.60;;;11.20;91.20;;;;;;5411589;26;21043;-72
2024/04/13 06:22:13;;;;;;;8.97;5.97;;;11.40;91.00;;;;;;5420539;26;20565;-72
2024/04/13 06:24:39;;;;;;;7.10;5.47;;;11.50;90.50;;;;;;5408631;26;20603;-72
2024/04/13 06:27:09;;;;;;;7.77;6.23;;;11.60;90.70;;;;;;5414340;26;20551;-72
2024/04/13 06:29:38;;;;;;;6.63;5.87;;;11.60;90.90;;;;;;5413965;26;20656;-71
2024/04/13 06:32:07;;;;;;;9.33;6.90;;;11.80;91.00;;;;;;5411488;26;20555;-71
2024/04/13 06:34:34;;;;;;;7.13;6.43;;;12.00;91.10;;;;;;5407725;26;20544;-71
2024/04/13 06:37:06;;;;;;;8.47;6.53;;;12.10;90.90;;;;;;5396664;26;20596;-71
2024/04/13 06:39:36;;;;;;;6.57;5.90;;;12.30;90.30;;;;;;5410518;26;20539;-71
2024/04/13 06:42:09;;;;;;;11.60;6.17;;;12.40;90.00;;;;;;5409084;26;21104;-70
2024/04/13 06:44:38;;;;;;;6.27;5.67;;;12.50;88.90;;;;;;5414916;26;20533;-69
2024/04/13 06:47:07;;;;;;;8.30;5.90;;;12.60;89.10;;;;;;5413272;26;20553;-70
2024/04/13 06:49:33;;;;;;;7.43;6.50;;;12.70;89.00;;;;;;5412452;26;20557;-74
2024/04/13 06:52:02;;;;;;;7.00;6.20;;;12.70;88.30;;;;;;5403965;26;20626;-76
2024/04/13 06:54:28;;;;;;;7.57;6.20;;;12.70;86.80;;;;;;5410402;26;20684;-74
2024/04/13 06:56:57;;;;;;;8.83;6.10;;;12.80;87.70;;;;;;5412185;26;20555;-76
2024/04/13 06:59:23;;;;;;;10.67;6.00;;;12.90;87.60;;;;;;5415544;26;20550;-76
2024/04/13 07:01:55;;;;;;;6.57;5.53;;;13.10;87.30;;;;;;5414939;26;21106;-75
2024/04/13 07:04:21;;;;;;;9.03;5.47;;;13.20;86.90;;;;;;5405551;26;20653;-76
2024/04/13 07:06:50;;;;;;;10.40;5.67;;;13.30;86.50;;;;;;5410942;26;20645;-79
2024/04/13 07:09:20;;;;;;;6.47;5.50;;;13.50;85.90;;;;;;5411409;26;20672;-82
2024/04/13 07:11:49;;;;;;;8.83;5.10;;;13.80;85.60;;;;;;5414181;26;20650;-77
2024/04/13 07:14:18;;;;;;;7.67;5.40;;;13.80;85.00;;;;;;5414012;26;20559;-76
2024/04/13 07:16:47;;;;;;;8.70;5.67;;;14.00;84.60;;;;;;5411002;26;20562;-73
2024/04/13 07:19:17;;;;;;;6.40;5.43;;;14.30;84.30;;;;;;5415792;26;20616;-72
2024/04/13 07:21:46;;;;;;;7.47;5.90;;;14.40;84.00;;;;;;5411019;26;20550;-73
2024/04/13 07:24:12;;;;;;;7.47;5.00;;;14.40;84.50;;;;;;5413883;26;20557;-72
2024/04/13 07:26:41;;;;;;;7.60;5.30;;;14.50;84.90;;;;;;5410440;26;20601;-72
2024/04/13 07:29:07;;;;;;;9.80;5.13;;;14.60;84.40;;;;;;5403973;26;20546;-74
2024/04/13 07:31:36;;;;;;;6.77;4.90;;;14.70;84.10;;;;;;5416214;26;20542;-75
2024/04/13 07:34:02;;;;;;;7.70;5.13;;;14.80;83.90;;;;;;5412576;26;20601;-77
2024/04/13 07:36:34;;;;;;;8.67;4.80;;;14.90;83.80;;;;;;5413614;26;20552;-78
2024/04/13 07:39:00;;;;;;;6.90;5.00;;;15.00;83.20;;;;;;5395809;26;20630;-78
2024/04/13 07:41:29;;;;;;;8.07;4.30;;;15.20;82.70;;;;;;5409266;26;21156;-78
2024/04/13 07:43:55;;;;;;;6.73;4.73;;;15.30;82.30;;;;;;5427980;26;20560;-77
2024/04/13 07:46:25;;;;;;;13.70;5.27;;;15.60;81.50;;;;;;5428007;26;20559;-74
2024/04/13 07:48:51;;;;;;;9.20;5.13;;;15.60;81.10;;;;;;5418713;26;20553;-75
2024/04/13 07:51:20;;;;;;;11.67;5.27;;;15.70;80.50;;;;;;5409121;26;20550;-74
2024/04/13 07:53:51;;;;;;;11.40;5.27;;;15.90;81.00;;;;;;5414967;26;20547;-76
2024/04/13 07:56:18;;;;;;;14.57;5.97;;;15.90;80.40;;;;;;5411051;26;20538;-79
2024/04/13 07:58:47;;;;;;;9.33;5.87;;;16.20;79.90;;;;;;5412273;26;21127;-77
2024/04/13 08:01:13;;;;;;;8.93;4.87;;;16.60;78.50;;;;;;5403402;26;20607;-78
2024/04/13 08:03:42;;;;;;;8.97;4.50;;;16.60;79.90;;;;;;5410422;26;20597;-78
2024/04/13 08:06:08;;;;;;;14.70;5.20;;;16.60;78.60;;;;;;5399244;26;20543;-78
2024/04/13 08:08:37;;;;;;;12.70;5.30;;;16.50;78.30;;;;;;5409313;26;20691;-79
2024/04/13 08:11:09;;;;;;;13.80;5.70;;;16.60;77.70;;;;;;5408438;26;20535;-78
2024/04/13 08:13:38;;;;;;;10.50;5.47;;;16.90;78.00;;;;;;5409005;26;20587;-78
2024/04/13 08:16:05;;;;;;;15.10;7.60;;;17.10;78.80;;;;;;5414711;26;20594;-78
2024/04/13 08:18:34;;;;;;;16.53;5.83;;;17.00;77.30;;;;;;5413834;26;20635;-78
2024/04/13 08:21:01;;;;;;;16.23;5.40;;;17.20;76.20;;;;;;5413836;26;20552;-78
2024/04/13 08:23:30;;;;;;;11.10;5.20;;;17.40;76.50;;;;;;5405158;26;20602;-78
2024/04/13 08:26:02;;;;;;;14.70;4.87;;;17.80;75.60;;;;;;5419435;26;20558;-78
2024/04/13 08:28:34;;;;;;;13.40;4.60;;;17.80;73.90;;;;;;5409460;26;20707;-78
2024/04/13 08:31:03;;;;;;;11.77;5.30;;;18.00;75.50;;;;;;5412718;26;20595;-78
2024/04/13 08:33:32;;;;;;;12.87;6.10;;;18.30;75.90;;;;;;5413910;26;20553;-78
2024/04/13 08:36:03;;;;;;;15.70;6.30;;;18.30;74.70;;;;;;5433675;26;20551;-78
2024/04/13 08:38:32;;;;;;;20.67;6.03;;;18.30;73.70;;;;;;5411913;26;20651;-78
2024/04/13 08:41:02;;;;;;;15.67;5.73;;;18.30;74.00;;;;;;5424745;26;20554;-78
2024/04/13 08:43:34;;;;;;;18.70;5.83;;;18.50;74.70;;;;;;5402167;26;20648;-78
2024/04/13 08:46:04;;;;;;;18.50;5.80;;;18.80;72.60;;;;;;5408261;26;20568;-77
2024/04/13 08:48:34;;;;;;;14.80;4.87;;;18.90;72.60;;;;;;5404720;26;20937;-76
2024/04/13 08:51:03;;;;;;;17.90;4.33;;;19.00;73.40;;;;;;5409536;26;20588;-74
2024/04/13 08:53:34;;;;;;;16.80;4.27;;;19.10;72.40;;;;;;5405219;26;20603;-74
2024/04/13 08:56:02;;;;;;;17.30;5.80;;;19.20;73.50;;;;;;5401546;26;20562;-74
2024/04/13 08:58:37;;;;;;;18.77;5.70;;;19.20;71.80;;;;;;5399684;26;20588;-75
2024/04/13 09:01:06;;;;;;;20.37;6.40;;;19.30;71.80;;;;;;5415142;26;20538;-74
2024/04/13 09:03:36;;;;;;;19.50;6.13;;;19.50;72.40;;;;;;5415466;26;20657;-74
2024/04/13 09:06:04;;;;;;;16.90;4.30;;;19.70;72.20;;;;;;5411742;26;20889;-75
2024/04/13 09:08:35;;;;;;;20.17;5.90;;;19.60;70.30;;;;;;5412011;26;20995;-75
2024/04/13 09:11:05;;;;;;;19.17;5.80;;;19.60;70.80;;;;;;5416333;26;20873;-75
2024/04/13 09:13:37;;;;;;;15.40;3.43;;;19.70;71.10;;;;;;5414649;26;20652;-75
2024/04/13 09:16:06;;;;;;;24.97;8.60;;;20.00;70.10;;;;;;5411778;26;20596;-75
2024/04/13 09:18:35;;;;;;;20.70;6.20;;;20.00;68.70;;;;;;5411343;26;20614;-75
2024/04/13 09:21:02;;;;;;;18.90;5.90;;;19.90;72.00;;;;;;5426016;26;20979;-75
2024/04/13 09:23:31;;;;;;;19.90;5.77;;;19.80;69.30;;;;;;5430367;26;20615;-75
2024/04/13 09:26:02;;;;;;;19.23;5.40;;;19.80;66.70;;;;;;5394874;26;20555;-74
2024/04/13 09:28:43;;;;;;;20.83;5.90;;;20.10;67.60;;;;;;5411321;26;20618;-74
2024/04/13 09:31:10;;;;;;;17.80;5.77;;;20.20;66.20;;;;;;5395182;26;20543;-75
2024/04/13 09:33:40;;;;;;;19.70;5.60;;;20.30;67.10;;;;;;5405292;26;20594;-74
2024/04/13 09:36:08;;;;;;;19.23;6.23;;;20.40;67.50;;;;;;5410638;26;20546;-74
2024/04/13 09:38:38;;;;;;;21.80;4.77;;;20.60;66.40;;;;;;5407347;26;20551;-75
2024/04/13 09:41:07;;;;;;;20.50;4.83;;;20.70;65.30;;;;;;5408151;26;20603;-75
2024/04/13 09:43:36;;;;;;;19.50;4.87;;;20.80;64.80;;;;;;5409417;26;20636;-75
2024/04/13 09:46:05;;;;;;;20.77;5.80;;;20.90;64.40;;;;;;5407261;26;21081;-74
2024/04/13 09:48:34;;;;;;;20.27;5.50;;;20.80;64.00;;;;;;5404616;26;20563;-75
2024/04/13 09:51:00;;;;;;;20.10;5.67;;;20.90;65.10;;;;;;5410126;26;21029;-74
2024/04/13 09:53:29;;;;;;;18.67;5.27;;;20.90;62.30;;;;;;5408011;26;20968;-75
2024/04/13 09:55:55;;;;;;;19.10;4.73;;;21.00;64.40;;;;;;5417468;26;20656;-72
2024/04/13 09:58:25;;;;;;;17.33;5.50;;;21.10;63.80;;;;;;5406817;26;20553;-72
2024/04/13 10:00:53;;;;;;;21.53;5.53;;;21.10;64.00;;;;;;5408979;26;20555;-73
2024/04/13 10:03:24;;;;;;;14.53;5.10;;;21.30;62.90;;;;;;5409281;26;20560;-73
2024/04/13 10:05:54;;;;;;;16.33;4.83;;;21.40;64.10;;;;;;5395987;26;20568;-74
2024/04/13 10:08:23;;;;;;;14.43;5.00;;;21.40;63.90;;;;;;5414301;26;20729;-73
2024/04/13 10:10:51;;;;;;;13.90;4.13;;;21.50;62.90;;;;;;5428374;26;20567;-73
2024/04/13 10:13:26;;;;;;;14.80;5.23;;;21.50;63.50;;;;;;5417473;26;20558;-73
2024/04/13 10:15:52;;;;;;;13.20;4.43;;;21.70;64.20;;;;;;5411417;26;20965;-73
2024/04/13 10:18:24;;;;;;;13.87;5.10;;;21.70;65.30;;;;;;5406755;26;20555;-74
2024/04/13 10:20:50;;;;;;;13.00;5.20;;;21.80;63.90;;;;;;5412442;26;20671;-73
2024/04/13 10:23:20;;;;;;;14.23;4.77;;;21.70;62.10;;;;;;5408655;26;20598;-73
2024/04/13 10:25:56;;;;;;;14.33;5.40;;;21.80;62.20;;;;;;5413846;26;20565;-74
2024/04/13 10:28:25;;;;;;;18.63;6.00;;;22.00;61.90;;;;;;5413999;26;20964;-74
2024/04/13 10:30:53;;;;;;;15.23;5.80;;;22.10;63.80;;;;;;5406753;26;20597;-74
2024/04/13 10:33:26;;;;;;;14.43;4.97;;;22.20;62.70;;;;;;5415245;26;21163;-73
2024/04/13 10:35:57;;;;;;;13.10;4.63;;;22.30;62.30;;;;;;5399688;26;20588;-74
2024/04/13 10:38:27;;;;;;;29.23;11.50;;;22.40;64.00;;;;;;5405145;26;20599;-76
2024/04/13 10:40:53;;;;;;;10.60;4.63;;;22.40;62.60;;;;;;5419135;26;21093;-75
2024/04/13 10:43:23;;;;;;;83.67;27.97;;;22.40;61.60;;;;;;5406418;26;20552;-74
2024/04/13 10:45:51;;;;;;;12.20;5.03;;;22.50;62.30;;;;;;5401969;26;20544;-74
2024/04/13 10:48:21;;;;;;;10.60;4.33;;;22.80;59.70;;;;;;5418771;26;20622;-75
2024/04/13 10:50:54;;;;;;;10.63;4.60;;;22.60;58.80;;;;;;5405445;26;21161;-75
2024/04/13 10:53:27;;;;;;;10.80;3.57;;;22.70;59.70;;;;;;5404438;26;20627;-75
2024/04/13 10:55:55;;;;;;;9.80;4.33;;;22.80;59.40;;;;;;5408778;26;20601;-75
2024/04/13 10:58:31;;;;;;;9.03;3.43;;;23.00;59.30;;;;;;5400965;26;20973;-76
2024/04/13 11:00:59;;;;;;;10.10;3.50;;;23.10;58.10;;;;;;5417012;26;20551;-77
2024/04/13 11:03:33;;;;;;;8.67;3.90;;;23.20;58.40;;;;;;5408605;26;20617;-77
2024/04/13 11:06:07;;;;;;;9.17;3.40;;;23.20;58.50;;;;;;5403202;26;21209;-82
2024/04/13 11:08:36;;;;;;;7.80;3.70;;;23.30;59.50;;;;;;5402844;26;20586;-81
2024/04/13 11:11:03;;;;;;;9.37;4.43;;;23.60;58.20;;;;;;5416263;26;20603;-82
2024/04/13 11:13:32;;;;;;;7.60;3.70;;;23.70;58.20;;;;;;5411790;26;20603;-82
2024/04/13 11:15:59;;;;;;;6.30;3.13;;;23.80;57.90;;;;;;5407782;26;21166;-83
2024/04/13 11:18:29;;;;;;;7.10;3.70;;;24.00;57.10;;;;;;5404114;26;21186;-82
2024/04/13 11:21:01;;;;;;;9.23;2.87;;;24.10;56.20;;;;;;5411030;26;20607;-83
2024/04/13 11:23:34;;;;;;;5.63;3.13;;;24.10;56.60;;;;;;5414620;26;20555;-83
2024/04/13 11:26:00;;;;;;;6.37;3.10;;;24.30;57.60;;;;;;5404857;26;20994;-82
2024/04/13 11:28:29;;;;;;;9.17;3.33;;;24.40;55.80;;;;;;5404078;26;20562;-78
2024/04/13 11:30:55;;;;;;;11.90;3.57;;;24.40;57.20;;;;;;5406412;26;20563;-77
2024/04/13 11:33:24;;;;;;;6.00;3.00;;;24.30;55.10;;;;;;5412685;26;20694;-78
2024/04/13 11:35:56;;;;;;;6.77;3.13;;;24.10;55.30;;;;;;5422231;26;20648;-77
2024/04/13 11:38:26;;;;;;;10.23;2.70;;;24.50;56.50;;;;;;5423768;26;20588;-78
2024/04/13 11:40:55;;;;;;;5.40;2.63;;;24.70;54.60;;;;;;5422873;26;20540;-78
2024/04/13 11:43:24;;;;;;;4.73;2.47;;;25.10;56.00;;;;;;5419484;26;20615;-77
2024/04/13 11:45:50;;;;;;;7.13;2.23;;;25.60;53.30;;;;;;5402039;26;20548;-77
2024/04/13 11:48:19;;;;;;;3.17;2.17;;;26.00;51.70;;;;;;5408215;26;20608;-74
2024/04/13 11:50:47;;;;;;;3.90;2.20;;;26.30;52.10;;;;;;5417010;26;21090;-72
2024/04/13 11:53:16;;;;;;;3.27;2.20;;;26.80;51.00;;;;;;5422376;26;21188;-76
2024/04/13 11:55:42;;;;;;;3.37;2.50;;;27.30;50.40;;;;;;5402768;26;20561;-75
2024/04/13 11:58:22;;;;;;;4.00;2.37;;;27.90;49.90;;;;;;5412472;26;20578;-76
2024/04/13 12:00:48;;;;;;;4.67;2.43;;;28.40;50.30;;;;;;5421795;26;20579;-75
2024/04/13 12:03:17;;;;;;;3.20;2.13;;;29.00;47.60;;;;;;5410712;26;20591;-73
2024/04/13 12:05:44;;;;;;;2.87;2.57;;;29.30;46.50;;;;;;5424049;26;21103;-73
2024/04/13 12:08:13;;;;;;;2.77;2.23;;;29.50;45.90;;;;;;5411653;26;21481;-73
2024/04/13 12:10:39;;;;;;;2.60;1.73;;;30.30;47.40;;;;;;5416164;26;20596;-73
2024/04/13 12:13:08;;;;;;;3.53;2.57;;;30.60;44.00;;;;;;5412163;26;20658;-73
2024/04/13 12:15:37;;;;;;;55.73;5.63;;;31.40;44.00;;;;;;5413049;26;20599;-73
2024/04/13 12:18:06;;;;;;;17.60;3.43;;;31.50;42.30;;;;;;5424576;26;20966;-72
2024/04/13 12:20:33;;;;;;;9.50;4.60;;;31.20;41.70;;;;;;5411779;26;20543;-72
2024/04/13 12:23:02;;;;;;;3.70;1.57;;;30.70;39.40;;;;;;5421126;26;20989;-72
2024/04/13 12:25:28;;;;;;;3.43;2.33;;;29.90;41.20;;;;;;5413998;26;20558;-73
2024/04/13 12:27:57;;;;;;;2.83;1.77;;;29.30;42.10;;;;;;5415402;26;20943;-72
2024/04/13 12:30:23;;;;;;;1.83;1.40;;;28.90;42.00;;;;;;5413715;26;20543;-72
2024/04/13 12:32:55;;;;;;;2.40;1.63;;;28.00;43.50;;;;;;5411586;26;20583;-73
2024/04/13 12:35:23;;;;;;;4.30;2.83;;;27.80;44.10;;;;;;5411592;26;20934;-75
2024/04/13 12:37:52;;;;;;;5.30;1.40;;;27.80;43.00;;;;;;5414191;26;20607;-74
2024/04/13 12:40:18;;;;;;;5.27;2.37;;;27.70;42.10;;;;;;5409896;26;21131;-74
2024/04/13 12:42:47;;;;;;;4.73;1.50;;;27.50;42.50;;;;;;5403848;26;20564;-77
2024/04/13 12:45:13;;;;;;;25.20;9.07;;;27.70;42.30;;;;;;5413579;26;20650;-75
2024/04/13 12:47:42;;;;;;;6.40;2.00;;;28.40;41.80;;;;;;5418276;26;20920;-74
2024/04/13 12:50:11;;;;;;;4.00;2.43;;;29.40;41.70;;;;;;5411674;26;21186;-74
2024/04/13 12:52:46;;;;;;;2.70;1.43;;;30.20;41.90;;;;;;5411148;26;20627;-75